createdAt,value
2023-04-18T00:00:38.214Z,0.86
2023-04-18T00:01:38.346Z,0.85
2023-04-18T00:02:38.558Z,0.86
2023-04-18T00:03:38.617Z,0.85
2023-04-18T00:04:38.671Z,0.84
2023-04-18T00:05:38.588Z,0.86
2023-04-18T00:06:38.639Z,0.85
2023-04-18T00:07:39.503Z,0.87
2023-04-18T00:08:38.789Z,0.84
2023-04-18T00:09:38.888Z,0.85
2023-04-18T00:10:38.934Z,0.84
2023-04-18T00:11:39.018Z,0.86
2023-04-18T00:12:39.066Z,0.86
2023-04-18T00:13:39.137Z,0.85
2023-04-18T00:14:39.195Z,0.83
2023-04-18T00:15:39.259Z,0.84
2023-04-18T00:16:39.383Z,0.84
2023-04-18T00:17:39.421Z,0.84
2023-04-18T00:18:39.463Z,0.85
2023-04-18T00:19:39.571Z,0.83
2023-04-18T00:20:39.585Z,0.84
2023-04-18T00:21:39.655Z,0.84
2023-04-18T00:22:39.722Z,0.83
2023-04-18T00:23:39.830Z,0.84
2023-04-18T00:24:39.869Z,0.82
2023-04-18T00:25:40.010Z,0.82
2023-04-18T00:26:39.991Z,0.84
2023-04-18T00:27:40.074Z,0.82
2023-04-18T00:28:40.147Z,0.83
2023-04-18T00:29:40.504Z,0.83
2023-04-18T00:30:40.313Z,0.81
2023-04-18T00:31:40.351Z,0.81
2023-04-18T00:32:40.455Z,0.83
2023-04-18T00:33:40.996Z,0.81
2023-04-18T00:34:40.586Z,0.81
2023-04-18T00:35:40.716Z,0.81
2023-04-18T00:36:40.697Z,0.80
2023-04-18T00:37:40.793Z,0.81
2023-04-18T00:38:40.852Z,0.80
2023-04-18T00:39:40.980Z,0.83
2023-04-18T00:40:40.969Z,0.82
2023-04-18T00:41:41.029Z,0.81
2023-04-18T00:42:41.106Z,0.80
2023-04-18T00:43:41.174Z,0.80
2023-04-18T00:44:41.249Z,0.80
2023-04-18T00:45:41.334Z,0.80
2023-04-18T00:46:41.481Z,0.80
2023-04-18T00:47:41.595Z,0.80
2023-04-18T00:48:42.009Z,0.80
2023-04-18T00:49:41.612Z,0.79
2023-04-18T00:50:41.719Z,0.80
2023-04-18T00:51:41.743Z,0.79
2023-04-18T00:52:41.810Z,0.79
2023-04-18T00:53:41.882Z,0.78
2023-04-18T00:54:41.953Z,0.79
2023-04-18T00:55:42.012Z,0.79
2023-04-18T00:56:42.091Z,0.80
2023-04-18T00:57:42.224Z,0.79
2023-04-18T00:58:43.015Z,0.78
2023-04-18T00:59:42.300Z,0.78
2023-04-18T01:00:42.374Z,0.79
2023-04-18T01:01:42.433Z,0.77
2023-04-18T01:02:42.672Z,0.79
2023-04-18T01:03:42.791Z,0.79
2023-04-18T01:04:42.826Z,0.77
2023-04-18T01:05:42.732Z,0.79
2023-04-18T01:06:42.784Z,0.79
2023-04-18T01:07:42.847Z,0.77
2023-04-18T01:08:42.923Z,0.77
2023-04-18T01:09:43.013Z,0.79
2023-04-18T01:10:43.071Z,0.76
2023-04-18T01:11:43.148Z,0.79
2023-04-18T01:12:43.257Z,0.77
2023-04-18T01:13:43.318Z,0.78
2023-04-18T01:14:43.385Z,0.78
2023-04-18T01:15:43.624Z,0.78
2023-04-18T01:16:43.541Z,0.77
2023-04-18T01:17:43.639Z,0.76
2023-04-18T01:18:43.680Z,0.75
2023-04-18T01:19:43.752Z,0.78
2023-04-18T01:20:43.839Z,0.77
2023-04-18T01:21:43.989Z,0.78
2023-04-18T01:22:44.028Z,0.76
2023-04-18T01:23:44.050Z,0.76
2023-04-18T01:24:44.127Z,0.77
2023-04-18T01:25:44.187Z,0.76
2023-04-18T01:26:44.233Z,0.75
2023-04-18T01:27:44.310Z,0.78
2023-04-18T01:28:44.414Z,0.75
2023-04-18T01:29:44.467Z,0.76
2023-04-18T01:30:44.544Z,0.75
2023-04-18T01:31:44.674Z,0.76
2023-04-18T01:32:44.714Z,0.76
2023-04-18T01:33:44.734Z,0.74
2023-04-18T01:34:44.792Z,0.74
2023-04-18T01:35:44.881Z,0.74
2023-04-18T01:36:44.926Z,0.76
2023-04-18T01:37:45.015Z,0.76
2023-04-18T01:38:45.073Z,0.75
2023-04-18T01:39:45.174Z,0.76
2023-04-18T01:40:45.229Z,0.75
2023-04-18T01:41:45.306Z,0.75
2023-04-18T01:42:45.456Z,0.74
2023-04-18T01:43:45.457Z,0.73
2023-04-18T01:44:45.551Z,0.74
2023-04-18T01:45:45.653Z,0.73
2023-04-18T01:46:45.734Z,0.73
2023-04-18T01:47:46.578Z,0.76
2023-04-18T01:48:45.910Z,0.74
2023-04-18T01:49:46.050Z,0.74
2023-04-18T01:50:46.131Z,0.75
2023-04-18T01:51:46.170Z,0.74
2023-04-18T01:52:46.260Z,0.74
2023-04-18T01:53:46.343Z,0.75
2023-04-18T01:54:46.438Z,0.73
2023-04-18T01:55:46.605Z,0.72
2023-04-18T01:56:46.618Z,0.73
2023-04-18T01:57:46.708Z,0.73
2023-04-18T01:58:46.794Z,0.73
2023-04-18T01:59:46.875Z,0.73
2023-04-18T02:00:47.020Z,0.73
2023-04-18T02:01:47.074Z,0.73
2023-04-18T02:02:47.187Z,0.74
2023-04-18T02:03:47.404Z,0.73
2023-04-18T02:04:47.304Z,0.72
2023-04-18T02:05:47.375Z,0.72
2023-04-18T02:06:47.463Z,0.74
2023-04-18T02:07:47.537Z,0.72
2023-04-18T02:08:47.629Z,0.72
2023-04-18T02:09:47.725Z,0.71
2023-04-18T02:10:48.537Z,0.71
2023-04-18T02:11:47.898Z,0.73
2023-04-18T02:12:47.983Z,0.72
2023-04-18T02:13:48.075Z,0.72
2023-04-18T02:14:48.168Z,0.72
2023-04-18T02:15:48.260Z,0.73
2023-04-18T02:16:48.408Z,0.72
2023-04-18T02:17:48.448Z,0.72
2023-04-18T02:18:48.482Z,0.72
2023-04-18T02:19:48.556Z,0.71
2023-04-18T02:20:48.643Z,0.72
2023-04-18T02:21:48.721Z,0.71
2023-04-18T02:22:48.800Z,0.72
2023-04-18T02:23:48.905Z,0.70
2023-04-18T02:24:48.985Z,0.71
2023-04-18T02:25:49.098Z,0.71
2023-04-18T02:26:49.152Z,0.71
2023-04-18T02:27:49.245Z,0.70
2023-04-18T02:28:49.326Z,0.71
2023-04-18T02:29:49.390Z,0.70
2023-04-18T02:30:49.485Z,0.70
2023-04-18T02:31:49.553Z,0.69
2023-04-18T02:32:49.691Z,0.70
2023-04-18T02:33:49.682Z,0.70
2023-04-18T02:34:49.763Z,0.70
2023-04-18T02:35:49.854Z,0.71
2023-04-18T02:36:50.062Z,0.71
2023-04-18T02:37:50.545Z,0.71
2023-04-18T02:38:50.110Z,0.69
2023-04-18T02:39:50.285Z,0.69
2023-04-18T02:40:50.276Z,0.69
2023-04-18T02:41:50.370Z,0.70
2023-04-18T02:42:50.464Z,0.71
2023-04-18T02:43:50.547Z,0.70
2023-04-18T02:44:50.620Z,0.70
2023-04-18T02:45:50.744Z,0.68
2023-04-18T02:46:51.554Z,0.69
2023-04-18T02:47:55.557Z,0.70
2023-04-18T02:48:51.906Z,0.70
2023-04-18T02:49:50.930Z,0.70
2023-04-18T02:50:50.937Z,0.70
2023-04-18T02:51:50.958Z,0.69
2023-04-18T02:52:50.952Z,0.68
2023-04-18T02:53:51.045Z,0.69
2023-04-18T02:54:50.989Z,0.69
2023-04-18T02:55:51.011Z,0.69
2023-04-18T02:56:51.024Z,0.69
2023-04-18T02:57:51.073Z,0.69
2023-04-18T02:58:51.145Z,0.69
2023-04-18T02:59:51.221Z,0.69
2023-04-18T03:00:51.311Z,0.68
2023-04-18T03:01:51.404Z,0.68
2023-04-18T03:02:51.535Z,0.67
2023-04-18T03:03:51.625Z,0.68
2023-04-18T03:04:51.682Z,0.69
2023-04-18T03:05:51.736Z,0.68
2023-04-18T03:06:51.821Z,0.68
2023-04-18T03:07:51.975Z,0.67
2023-04-18T03:08:51.979Z,0.68
2023-04-18T03:09:52.585Z,0.67
2023-04-18T03:10:52.157Z,0.67
2023-04-18T03:11:52.240Z,0.67
2023-04-18T03:12:52.317Z,0.67
2023-04-18T03:13:52.409Z,0.66
2023-04-18T03:14:52.473Z,0.67
2023-04-18T03:15:52.604Z,0.66
2023-04-18T03:16:55.417Z,0.68
2023-04-18T03:17:52.733Z,0.67
2023-04-18T03:18:52.662Z,0.67
2023-04-18T03:19:52.757Z,0.66
2023-04-18T03:20:52.699Z,0.65
2023-04-18T03:21:52.732Z,0.67
2023-04-18T03:22:52.716Z,0.66
2023-04-18T03:23:52.730Z,0.66
2023-04-18T03:24:52.753Z,0.66
2023-04-18T03:25:52.772Z,0.66
2023-04-18T03:26:52.797Z,0.65
2023-04-18T03:27:53.568Z,0.66
2023-04-18T03:28:52.817Z,0.66
2023-04-18T03:29:52.842Z,0.66
2023-04-18T03:30:52.913Z,0.65
2023-04-18T03:31:52.862Z,0.65
2023-04-18T03:32:53.028Z,0.67
2023-04-18T03:33:52.911Z,0.66
2023-04-18T03:34:52.931Z,0.66
2023-04-18T03:35:52.956Z,0.65
2023-04-18T03:36:52.973Z,0.64
2023-04-18T03:37:52.996Z,0.66
2023-04-18T03:38:53.016Z,0.65
2023-04-18T03:39:53.090Z,0.65
2023-04-18T03:40:53.052Z,0.64
2023-04-18T03:41:53.073Z,0.66
2023-04-18T03:42:53.093Z,0.64
2023-04-18T03:43:53.102Z,0.65
2023-04-18T03:44:53.149Z,0.65
2023-04-18T03:45:53.262Z,0.65
2023-04-18T03:46:53.162Z,0.64
2023-04-18T03:47:53.191Z,0.64
2023-04-18T03:48:53.192Z,0.64
2023-04-18T03:49:53.230Z,0.64
2023-04-18T03:50:53.240Z,0.64
2023-04-18T03:51:53.253Z,0.64
2023-04-18T03:52:53.285Z,0.66
2023-04-18T03:53:53.276Z,0.64
2023-04-18T03:54:53.299Z,0.65
2023-04-18T03:55:53.322Z,0.64
2023-04-18T03:56:53.402Z,0.65
2023-04-18T03:57:53.474Z,0.63
2023-04-18T03:58:54.081Z,0.64
2023-04-18T03:59:53.627Z,0.64
2023-04-18T04:00:53.716Z,0.64
2023-04-18T04:01:53.827Z,0.64
2023-04-18T04:02:54.035Z,0.64
2023-04-18T04:03:54.003Z,0.63
2023-04-18T04:04:54.044Z,0.63
2023-04-18T04:05:54.088Z,0.64
2023-04-18T04:06:54.187Z,0.63
2023-04-18T04:07:54.238Z,0.62
2023-04-18T04:08:54.312Z,0.63
2023-04-18T04:09:54.396Z,0.64
2023-04-18T04:10:54.529Z,0.63
2023-04-18T04:11:54.526Z,0.63
2023-04-18T04:12:54.609Z,0.63
2023-04-18T04:13:54.695Z,0.63
2023-04-18T04:14:55.788Z,0.63
2023-04-18T04:15:54.857Z,0.63
2023-04-18T04:16:54.918Z,0.62
2023-04-18T04:17:55.009Z,0.63
2023-04-18T04:18:55.098Z,0.62
2023-04-18T04:19:55.142Z,0.62
2023-04-18T04:20:55.231Z,0.63
2023-04-18T04:21:55.309Z,0.62
2023-04-18T04:22:55.381Z,0.63
2023-04-18T04:23:55.464Z,0.62
2023-04-18T04:24:55.528Z,0.63
2023-04-18T04:25:55.607Z,0.62
2023-04-18T04:26:55.696Z,0.61
2023-04-18T04:27:55.728Z,0.61
2023-04-18T04:28:55.804Z,0.62
2023-04-18T04:29:56.631Z,0.61
2023-04-18T04:30:55.940Z,0.62
2023-04-18T04:31:56.050Z,0.62
2023-04-18T04:32:56.091Z,0.62
2023-04-18T04:33:56.156Z,0.62
2023-04-18T04:34:56.238Z,0.62
2023-04-18T04:35:56.314Z,0.62
2023-04-18T04:36:56.376Z,0.61
2023-04-18T04:37:56.460Z,0.60
2023-04-18T04:38:56.525Z,0.62
2023-04-18T04:39:57.547Z,0.63
2023-04-18T04:40:56.559Z,0.62
2023-04-18T04:41:56.576Z,0.62
2023-04-18T04:42:57.099Z,0.61
2023-04-18T04:43:56.601Z,0.61
2023-04-18T04:44:56.743Z,0.61
2023-04-18T04:45:56.649Z,0.62
2023-04-18T04:46:56.658Z,0.61
2023-04-18T04:47:56.789Z,0.61
2023-04-18T04:48:56.692Z,0.61
2023-04-18T04:49:56.711Z,0.60
2023-04-18T04:50:56.749Z,0.61
2023-04-18T04:51:56.815Z,0.60
2023-04-18T04:52:57.103Z,0.61
2023-04-18T04:53:56.951Z,0.61
2023-04-18T04:54:57.023Z,0.60
2023-04-18T04:55:57.100Z,0.61
2023-04-18T04:56:57.171Z,0.62
2023-04-18T04:57:57.244Z,0.60
2023-04-18T04:58:57.308Z,0.60
2023-04-18T04:59:57.400Z,0.60
2023-04-18T05:00:57.491Z,0.59
2023-04-18T05:01:57.563Z,0.60
2023-04-18T05:02:57.709Z,0.60
2023-04-18T05:03:57.778Z,0.60
2023-04-18T05:04:57.729Z,0.59
2023-04-18T05:05:57.807Z,0.59
2023-04-18T05:06:57.884Z,0.60
2023-04-18T05:07:57.945Z,0.59
2023-04-18T05:08:58.030Z,0.60
2023-04-18T05:09:58.110Z,0.59
2023-04-18T05:10:59.113Z,0.59
2023-04-18T05:11:58.256Z,0.59
2023-04-18T05:12:58.331Z,0.60
2023-04-18T05:13:58.398Z,0.60
2023-04-18T05:14:58.480Z,0.60
2023-04-18T05:15:58.621Z,0.59
2023-04-18T05:16:58.659Z,0.59
2023-04-18T05:17:58.739Z,0.60
2023-04-18T05:18:58.776Z,0.59
2023-04-18T05:19:58.844Z,0.59
2023-04-18T05:20:58.914Z,0.59
2023-04-18T05:21:58.987Z,0.58
2023-04-18T05:22:59.161Z,0.58
2023-04-18T05:23:59.129Z,0.59
2023-04-18T05:24:59.209Z,0.59
2023-04-18T05:25:59.519Z,0.60
2023-04-18T05:26:59.380Z,0.65
2023-04-18T05:27:59.417Z,0.68
2023-04-18T05:28:59.481Z,0.71
2023-04-18T05:29:59.525Z,0.73
2023-04-18T05:31:00.179Z,0.76
2023-04-18T05:31:59.590Z,0.80
2023-04-18T05:32:59.656Z,0.85
2023-04-18T05:33:59.669Z,0.94
2023-04-18T05:34:59.697Z,1.08
2023-04-18T05:35:59.761Z,1.19
2023-04-18T05:37:00.616Z,1.22
2023-04-18T05:37:59.732Z,1.30
2023-04-18T05:38:59.761Z,1.39
2023-04-18T05:40:00.736Z,1.45
2023-04-18T05:40:59.767Z,1.53
2023-04-18T05:41:59.785Z,1.59
2023-04-18T05:42:59.883Z,1.66
2023-04-18T05:44:05.401Z,1.73
2023-04-18T05:45:01.141Z,1.74
2023-04-18T05:45:59.884Z,1.75
2023-04-18T05:46:59.848Z,1.80
2023-04-18T05:47:59.903Z,1.91
2023-04-18T05:48:59.871Z,2.09
2023-04-18T05:49:59.857Z,2.20
2023-04-18T05:51:00.554Z,2.26
2023-04-18T05:51:59.862Z,2.28
2023-04-18T05:52:59.858Z,2.40
2023-04-18T05:53:59.944Z,2.50
2023-04-18T05:55:00.001Z,2.60
2023-04-18T05:56:00.073Z,2.61
2023-04-18T05:57:00.916Z,2.73
2023-04-18T05:58:00.187Z,2.84
2023-04-18T05:59:00.215Z,2.93
2023-04-18T06:00:00.291Z,3.18
2023-04-18T06:01:00.376Z,3.23
2023-04-18T06:02:00.466Z,3.37
2023-04-18T06:03:00.495Z,3.47
2023-04-18T06:04:00.705Z,3.58
2023-04-18T06:05:00.577Z,3.81
2023-04-18T06:06:00.560Z,3.95
2023-04-18T06:07:00.475Z,4.14
2023-04-18T06:08:00.493Z,4.29
2023-04-18T06:09:00.508Z,4.42
2023-04-18T06:10:00.509Z,4.62
2023-04-18T06:11:00.506Z,4.80
2023-04-18T06:12:00.495Z,5.00
2023-04-18T06:13:00.495Z,5.15
2023-04-18T06:14:00.494Z,5.31
2023-04-18T06:15:00.487Z,5.43
2023-04-18T06:16:00.541Z,5.63
2023-04-18T06:17:00.486Z,6.10
2023-04-18T06:18:00.496Z,6.60
2023-04-18T06:19:01.215Z,6.26
2023-04-18T06:20:00.501Z,6.14
2023-04-18T06:21:00.480Z,6.31
2023-04-18T06:22:00.507Z,6.35
2023-04-18T06:23:00.513Z,6.43
2023-04-18T06:24:00.466Z,6.39
2023-04-18T06:25:00.477Z,6.36
2023-04-18T06:26:02.120Z,6.39
2023-04-18T06:27:00.491Z,6.34
2023-04-18T06:28:00.450Z,6.39
2023-04-18T06:29:01.548Z,6.40
2023-04-18T06:30:00.532Z,6.40
2023-04-18T06:31:00.411Z,6.42
2023-04-18T06:32:01.202Z,6.40
2023-04-18T06:33:00.465Z,6.35
2023-04-18T06:34:00.380Z,6.33
2023-04-18T06:35:01.145Z,6.20
2023-04-18T06:36:00.357Z,6.21
2023-04-18T06:37:00.361Z,6.20
2023-04-18T06:38:00.354Z,6.17
2023-04-18T06:39:00.382Z,6.10
2023-04-18T06:40:00.344Z,6.04
2023-04-18T06:41:00.355Z,6.01
2023-04-18T06:42:00.336Z,5.99
2023-04-18T06:43:00.368Z,5.89
2023-04-18T06:44:04.283Z,5.87
2023-04-18T06:45:00.372Z,5.88
2023-04-18T06:46:00.400Z,5.88
2023-04-18T06:47:00.345Z,5.85
2023-04-18T06:48:00.372Z,5.89
2023-04-18T06:49:00.445Z,5.86
2023-04-18T06:50:00.364Z,5.77
2023-04-18T06:51:00.357Z,5.71
2023-04-18T06:52:00.364Z,5.71
2023-04-18T06:53:00.364Z,5.62
2023-04-18T06:54:00.354Z,5.62
2023-04-18T06:55:00.444Z,5.57
2023-04-18T06:56:00.371Z,5.54
2023-04-18T06:57:00.365Z,5.51
2023-04-18T06:58:00.359Z,5.47
2023-04-18T06:59:00.372Z,5.37
2023-04-18T07:00:00.366Z,5.35
2023-04-18T07:01:00.410Z,5.36
2023-04-18T07:02:00.400Z,5.24
2023-04-18T07:03:00.524Z,5.27
2023-04-18T07:04:00.532Z,5.23
2023-04-18T07:05:00.369Z,5.29
2023-04-18T07:06:00.396Z,5.16
2023-04-18T07:07:00.439Z,5.13
2023-04-18T07:08:00.396Z,5.07
2023-04-18T07:09:00.468Z,5.06
2023-04-18T07:10:00.527Z,5.02
2023-04-18T07:11:00.597Z,5.02
2023-04-18T07:12:00.652Z,5.00
2023-04-18T07:13:00.727Z,4.96
2023-04-18T07:14:00.776Z,4.86
2023-04-18T07:15:01.119Z,4.89
2023-04-18T07:16:00.897Z,4.86
2023-04-18T07:17:01.003Z,4.86
2023-04-18T07:18:01.074Z,4.74
2023-04-18T07:19:01.113Z,4.74
2023-04-18T07:20:01.163Z,4.55
2023-04-18T07:21:01.247Z,4.56
2023-04-18T07:22:01.305Z,4.58
2023-04-18T07:23:01.338Z,4.62
2023-04-18T07:24:01.376Z,4.74
2023-04-18T07:25:01.442Z,4.86
2023-04-18T07:26:01.420Z,4.85
2023-04-18T07:27:01.517Z,4.95
2023-04-18T07:28:01.516Z,4.99
2023-04-18T07:29:01.457Z,5.05
2023-04-18T07:30:01.456Z,5.19
2023-04-18T07:31:02.199Z,5.25
2023-04-18T07:32:01.446Z,5.32
2023-04-18T07:33:01.521Z,5.53
2023-04-18T07:34:01.467Z,5.71
2023-04-18T07:35:01.526Z,5.76
2023-04-18T07:36:01.539Z,5.88
2023-04-18T07:37:01.508Z,5.95
2023-04-18T07:38:01.548Z,6.09
2023-04-18T07:39:01.609Z,6.24
2023-04-18T07:40:01.770Z,6.45
2023-04-18T07:41:01.697Z,6.61
2023-04-18T07:42:01.757Z,6.64
2023-04-18T07:43:01.817Z,6.82
2023-04-18T07:44:01.964Z,7.18
2023-04-18T07:45:01.919Z,7.22
2023-04-18T07:46:02.067Z,7.38
2023-04-18T07:47:02.058Z,7.42
2023-04-18T07:48:02.150Z,7.64
2023-04-18T07:49:02.363Z,7.84
2023-04-18T07:50:02.190Z,7.98
2023-04-18T07:51:02.239Z,8.27
2023-04-18T07:52:02.299Z,8.38
2023-04-18T07:53:02.380Z,8.60
2023-04-18T07:54:02.377Z,8.95
2023-04-18T07:55:02.414Z,9.00
2023-04-18T07:56:02.460Z,9.35
2023-04-18T07:57:02.501Z,9.55
2023-04-18T07:58:02.552Z,9.68
2023-04-18T07:59:02.631Z,9.98
2023-04-18T08:00:02.679Z,10.30
2023-04-18T08:01:02.657Z,10.57
2023-04-18T08:02:02.786Z,10.73
2023-04-18T08:03:03.002Z,11.11
2023-04-18T08:04:02.960Z,11.25
2023-04-18T08:05:03.074Z,11.34
2023-04-18T08:06:03.183Z,11.50
2023-04-18T08:07:02.886Z,11.77
2023-04-18T08:08:02.906Z,11.88
2023-04-18T08:09:02.937Z,12.77
2023-04-18T08:10:03.674Z,12.77
2023-04-18T08:11:03.021Z,12.95
2023-04-18T08:12:03.061Z,12.61
2023-04-18T08:13:03.107Z,12.49
2023-04-18T08:14:03.149Z,12.53
2023-04-18T08:15:03.181Z,12.52
2023-04-18T08:16:03.266Z,12.87
2023-04-18T08:17:03.315Z,12.76
2023-04-18T08:18:03.398Z,12.90
2023-04-18T08:19:03.370Z,10.28
2023-04-18T08:20:03.324Z,7.88
2023-04-18T08:21:03.369Z,6.59
2023-04-18T08:22:03.382Z,3.05
2023-04-18T08:23:07.921Z,3.15
2023-04-18T08:24:04.415Z,3.16
2023-04-18T08:25:05.537Z,2.87
2023-04-18T08:26:03.488Z,2.63
2023-04-18T08:27:03.440Z,2.96
2023-04-18T08:28:03.455Z,2.92
2023-04-18T08:29:03.468Z,2.89
2023-04-18T08:30:03.477Z,2.85
2023-04-18T08:31:03.480Z,2.79
2023-04-18T08:32:03.603Z,2.83
2023-04-18T08:33:03.598Z,2.79
2023-04-18T08:34:05.120Z,2.88
2023-04-18T08:35:03.640Z,2.94
2023-04-18T08:36:03.650Z,2.96
2023-04-18T08:37:03.687Z,3.09
2023-04-18T08:38:03.715Z,3.07
2023-04-18T08:39:03.772Z,3.13
2023-04-18T08:40:03.823Z,3.24
2023-04-18T08:41:03.864Z,3.19
2023-04-18T08:42:03.919Z,3.36
2023-04-18T08:43:04.198Z,3.45
2023-04-18T08:44:03.999Z,3.55
2023-04-18T08:45:04.035Z,3.52
2023-04-18T08:46:04.163Z,3.68
2023-04-18T08:47:04.083Z,3.87
2023-04-18T08:48:04.151Z,3.89
2023-04-18T08:49:04.130Z,4.02
2023-04-18T08:50:04.154Z,4.22
2023-04-18T08:51:04.164Z,4.33
2023-04-18T08:52:04.204Z,4.51
2023-04-18T08:53:04.209Z,4.64
2023-04-18T08:54:04.211Z,4.76
2023-04-18T08:55:04.265Z,4.99
2023-04-18T08:56:04.694Z,4.96
2023-04-18T08:57:04.260Z,5.19
2023-04-18T08:58:04.288Z,5.24
2023-04-18T08:59:04.279Z,5.30
2023-04-18T09:00:04.289Z,5.52
2023-04-18T09:01:04.457Z,5.74
2023-04-18T09:02:04.332Z,5.95
2023-04-18T09:03:04.440Z,5.99
2023-04-18T09:04:04.300Z,6.25
2023-04-18T09:05:04.286Z,6.35
2023-04-18T09:06:04.293Z,6.51
2023-04-18T09:07:04.547Z,6.82
2023-04-18T09:08:04.253Z,6.96
2023-04-18T09:09:04.244Z,7.13
2023-04-18T09:10:04.251Z,7.47
2023-04-18T09:11:04.236Z,7.42
2023-04-18T09:12:04.214Z,7.46
2023-04-18T09:13:04.215Z,7.78
2023-04-18T09:14:04.194Z,7.80
2023-04-18T09:15:04.263Z,8.21
2023-04-18T09:16:04.189Z,8.56
2023-04-18T09:17:04.183Z,7.95
2023-04-18T09:18:04.191Z,3.40
2023-04-18T09:19:05.783Z,3.95
2023-04-18T09:20:04.438Z,2.92
2023-04-18T09:21:04.488Z,2.46
2023-04-18T09:22:04.550Z,2.36
2023-04-18T09:23:04.631Z,2.01
2023-04-18T09:24:04.643Z,1.67
2023-04-18T09:25:04.702Z,1.48
2023-04-18T09:26:04.719Z,1.45
2023-04-18T09:27:04.778Z,1.44
2023-04-18T09:28:04.811Z,1.40
2023-04-18T09:29:04.847Z,1.43
2023-04-18T09:30:04.873Z,1.45
2023-04-18T09:31:04.951Z,1.51
2023-04-18T09:32:04.951Z,1.51
2023-04-18T09:33:04.974Z,1.53
2023-04-18T09:34:04.934Z,1.64
2023-04-18T09:35:05.103Z,1.65
2023-04-18T09:36:04.968Z,1.69
2023-04-18T09:37:04.976Z,1.77
2023-04-18T09:38:04.936Z,1.82
2023-04-18T09:39:04.946Z,1.94
2023-04-18T09:40:04.925Z,2.02
2023-04-18T09:41:04.913Z,2.06
2023-04-18T09:42:04.900Z,2.08
2023-04-18T09:43:04.893Z,2.10
2023-04-18T09:44:04.867Z,2.22
2023-04-18T09:45:04.910Z,2.21
2023-04-18T09:46:04.827Z,2.37
2023-04-18T09:47:04.798Z,2.45
2023-04-18T09:48:04.881Z,2.55
2023-04-18T09:49:04.740Z,2.63
2023-04-18T09:50:04.790Z,2.76
2023-04-18T09:51:04.693Z,2.79
2023-04-18T09:52:04.659Z,2.91
2023-04-18T09:53:04.671Z,3.03
2023-04-18T09:54:04.731Z,3.07
2023-04-18T09:55:04.643Z,3.15
2023-04-18T09:56:04.705Z,3.22
2023-04-18T09:57:04.608Z,3.36
2023-04-18T09:58:04.643Z,3.44
2023-04-18T09:59:04.539Z,3.56
2023-04-18T10:00:04.531Z,3.63
2023-04-18T10:01:04.549Z,3.83
2023-04-18T10:02:04.640Z,3.93
2023-04-18T10:03:04.561Z,3.98
2023-04-18T10:04:04.612Z,4.05
2023-04-18T10:05:04.619Z,4.22
2023-04-18T10:06:04.572Z,4.30
2023-04-18T10:07:04.589Z,4.39
2023-04-18T10:08:04.669Z,4.50
2023-04-18T10:09:04.695Z,4.70
2023-04-18T10:10:04.694Z,4.78
2023-04-18T10:11:04.659Z,5.03
2023-04-18T10:12:04.633Z,5.09
2023-04-18T10:13:04.586Z,5.21
2023-04-18T10:14:04.567Z,5.05
2023-04-18T10:15:04.570Z,4.18
2023-04-18T10:16:04.616Z,2.68
2023-04-18T10:17:04.568Z,2.76
2023-04-18T10:18:06.073Z,2.31
2023-04-18T10:19:04.548Z,2.21
2023-04-18T10:20:04.553Z,2.18
2023-04-18T10:21:04.540Z,1.39
2023-04-18T10:22:05.228Z,1.48
2023-04-18T10:23:04.577Z,1.41
2023-04-18T10:24:05.226Z,1.37
2023-04-18T10:25:04.510Z,1.35
2023-04-18T10:26:04.557Z,1.34
2023-04-18T10:27:04.476Z,1.21
2023-04-18T10:28:05.148Z,1.17
2023-04-18T10:29:05.155Z,1.10
2023-04-18T10:30:04.464Z,1.08
2023-04-18T10:31:04.451Z,0.99
2023-04-18T10:32:04.450Z,0.95
2023-04-18T10:33:05.774Z,0.86
2023-04-18T10:34:05.975Z,0.86
2023-04-18T10:35:04.359Z,0.83
2023-04-18T10:36:04.346Z,0.81
2023-04-18T10:37:04.308Z,0.75
2023-04-18T10:38:04.263Z,0.66
2023-04-18T10:39:04.333Z,0.67
2023-04-18T10:40:04.199Z,0.70
2023-04-18T10:41:04.172Z,0.70
2023-04-18T10:42:04.149Z,0.74
2023-04-18T10:43:04.145Z,0.76
2023-04-18T10:44:04.300Z,0.77
2023-04-18T10:45:04.661Z,0.84
2023-04-18T10:46:04.014Z,0.85
2023-04-18T10:47:04.015Z,0.89
2023-04-18T10:48:04.796Z,0.92
2023-04-18T10:49:03.931Z,0.94
2023-04-18T10:50:06.281Z,0.97
2023-04-18T10:51:03.866Z,1.06
2023-04-18T10:52:03.828Z,1.10
2023-04-18T10:53:03.790Z,1.14
2023-04-18T10:54:03.752Z,1.17
2023-04-18T10:55:03.715Z,1.19
2023-04-18T10:56:03.694Z,1.28
2023-04-18T10:57:03.654Z,1.30
2023-04-18T10:58:03.631Z,1.34
2023-04-18T10:59:03.570Z,1.37
2023-04-18T11:00:03.539Z,1.47
2023-04-18T11:01:03.556Z,1.48
2023-04-18T11:02:03.508Z,1.59
2023-04-18T11:03:03.613Z,1.68
2023-04-18T11:04:03.464Z,1.64
2023-04-18T11:05:03.369Z,1.70
2023-04-18T11:06:03.352Z,1.73
2023-04-18T11:07:03.318Z,1.74
2023-04-18T11:08:03.275Z,1.77
2023-04-18T11:09:03.255Z,1.79
2023-04-18T11:10:03.225Z,1.82
2023-04-18T11:11:03.175Z,1.85
2023-04-18T11:12:03.137Z,1.87
2023-04-18T11:13:03.113Z,1.86
2023-04-18T11:14:03.081Z,1.89
2023-04-18T11:15:03.165Z,1.92
2023-04-18T11:16:03.058Z,1.93
2023-04-18T11:17:02.990Z,1.98
2023-04-18T11:18:03.005Z,1.90
2023-04-18T11:19:02.940Z,1.95
2023-04-18T11:20:02.929Z,1.96
2023-04-18T11:21:02.957Z,1.95
2023-04-18T11:22:02.881Z,1.99
2023-04-18T11:23:02.822Z,1.98
2023-04-18T11:24:02.805Z,1.98
2023-04-18T11:25:03.902Z,2.01
2023-04-18T11:26:02.771Z,2.00
2023-04-18T11:27:02.716Z,2.01
2023-04-18T11:28:02.697Z,2.00
2023-04-18T11:29:02.662Z,1.99
2023-04-18T11:30:02.719Z,2.01
2023-04-18T11:31:02.764Z,1.99
2023-04-18T11:32:02.689Z,2.02
2023-04-18T11:33:02.603Z,1.95
2023-04-18T11:34:02.549Z,1.99
2023-04-18T11:35:02.511Z,1.99
2023-04-18T11:36:02.551Z,2.01
2023-04-18T11:37:02.761Z,1.96
2023-04-18T11:38:02.431Z,1.95
2023-04-18T11:39:02.429Z,2.03
2023-04-18T11:40:02.401Z,1.96
2023-04-18T11:41:02.370Z,2.00
2023-04-18T11:42:02.794Z,1.96
2023-04-18T11:43:02.397Z,1.95
2023-04-18T11:44:02.305Z,1.95
2023-04-18T11:45:02.278Z,1.96
2023-04-18T11:46:02.278Z,1.93
2023-04-18T11:47:02.274Z,1.93
2023-04-18T11:48:02.218Z,1.89
2023-04-18T11:49:02.153Z,1.94
2023-04-18T11:50:02.154Z,1.97
2023-04-18T11:51:02.092Z,1.94
2023-04-18T11:52:02.145Z,1.94
2023-04-18T11:53:02.040Z,1.88
2023-04-18T11:54:02.010Z,1.89
2023-04-18T11:55:01.986Z,1.87
2023-04-18T11:56:02.003Z,1.85
2023-04-18T11:57:02.018Z,1.90
2023-04-18T11:58:02.008Z,1.85
2023-04-18T11:59:01.992Z,1.82
2023-04-18T12:00:02.000Z,1.87
2023-04-18T12:01:01.997Z,1.87
2023-04-18T12:02:08.878Z,1.86
2023-04-18T12:03:03.084Z,1.86
2023-04-18T12:04:02.327Z,1.86
2023-04-18T12:05:02.374Z,1.84
2023-04-18T12:06:01.945Z,1.86
2023-04-18T12:07:01.855Z,1.82
2023-04-18T12:08:01.830Z,1.78
2023-04-18T12:09:01.783Z,1.82
2023-04-18T12:10:01.773Z,1.78
2023-04-18T12:11:01.749Z,1.78
2023-04-18T12:12:01.691Z,1.78
2023-04-18T12:13:01.671Z,1.76
2023-04-18T12:14:03.616Z,1.77
2023-04-18T12:15:01.638Z,1.73
2023-04-18T12:16:01.654Z,1.75
2023-04-18T12:17:01.611Z,1.74
2023-04-18T12:18:01.638Z,1.68
2023-04-18T12:19:01.608Z,1.70
2023-04-18T12:20:01.526Z,1.73
2023-04-18T12:21:01.502Z,1.70
2023-04-18T12:22:01.499Z,1.68
2023-04-18T12:23:01.482Z,1.68
2023-04-18T12:24:01.455Z,1.66
2023-04-18T12:25:01.380Z,1.65
2023-04-18T12:26:01.404Z,1.65
2023-04-18T12:27:01.358Z,1.68
2023-04-18T12:28:01.329Z,1.65
2023-04-18T12:29:01.290Z,1.67
2023-04-18T12:30:01.913Z,1.67
2023-04-18T12:31:01.257Z,1.67
2023-04-18T12:32:01.301Z,1.65
2023-04-18T12:33:01.182Z,1.65
2023-04-18T12:34:01.146Z,1.63
2023-04-18T12:35:01.998Z,1.61
2023-04-18T12:36:01.070Z,1.62
2023-04-18T12:37:01.053Z,1.60
2023-04-18T12:38:01.050Z,1.60
2023-04-18T12:39:01.060Z,1.58
2023-04-18T12:40:01.066Z,1.58
2023-04-18T12:41:01.095Z,1.55
2023-04-18T12:42:01.098Z,1.58
2023-04-18T12:43:03.616Z,1.57
2023-04-18T12:44:01.038Z,1.54
2023-04-18T12:45:01.143Z,1.54
2023-04-18T12:46:00.943Z,1.54
2023-04-18T12:47:00.948Z,1.55
2023-04-18T12:48:01.026Z,1.55
2023-04-18T12:49:00.821Z,1.53
2023-04-18T12:50:01.354Z,1.52
2023-04-18T12:51:00.757Z,1.50
2023-04-18T12:52:00.743Z,1.49
2023-04-18T12:53:00.649Z,1.51
2023-04-18T12:54:00.601Z,1.47
2023-04-18T12:55:00.553Z,1.46
2023-04-18T12:56:00.500Z,1.50
2023-04-18T12:57:00.466Z,1.45
2023-04-18T12:58:00.410Z,1.45
2023-04-18T12:59:00.380Z,1.45
2023-04-18T13:00:00.345Z,1.44
2023-04-18T13:01:00.311Z,1.42
2023-04-18T13:02:00.312Z,1.44
2023-04-18T13:03:00.376Z,1.44
2023-04-18T13:04:11.468Z,1.39
2023-04-18T13:05:01.111Z,1.39
2023-04-18T13:06:00.037Z,1.40
2023-04-18T13:07:00.303Z,1.40
2023-04-18T13:08:15.253Z,1.39
2023-04-18T13:09:00.876Z,1.39
2023-04-18T13:09:59.846Z,1.40
2023-04-18T13:10:59.867Z,1.40
2023-04-18T13:11:59.738Z,1.40
2023-04-18T13:12:59.709Z,1.37
2023-04-18T13:13:59.642Z,1.41
2023-04-18T13:15:02.394Z,1.38
2023-04-18T13:15:59.611Z,1.40
2023-04-18T13:16:59.569Z,1.36
2023-04-18T13:17:59.520Z,1.34